Mica, WA (99023)

12:11 PM PST on February 14, 2016 (GMT -0800)
Shiloh Acres | | Change Station
CLOSE
Current Station
Personal Weather Station
Location: Valleyford, WA
Elevation: 2487 ft
Nearby Weather Stations

Elev 2487 ft 47.56 °N, 117.24 °W | Updated 31 seconds ago

Overcast
Overcast
44.2 °F
Feels Like 40 °F
N
7.4
Wind Variable Wind from SW
Gusts 9.8 mph

Today
High -- | Low -- °F
--% Chance of Precip.
Yesterday
High -- | Low -- °F
Precip. -- in
Pressure 30.15 in
Visibility 10.0 miles
Clouds Overcast 1300 ft
Windchill 40 °F
Dew Point 38 °F
Humidity 80%
Rainfall 0.00 in
Snow Depth Not available.
6:56 AM 5:10 PM
Waxing Crescent, 45% visible
METAR KSFF 141953Z VRB03KT 10SM OVC013 08/04 A3013 RMK AO2 SLP210 T00780039
Pressure 30.15 in
Visibility 10.0 miles
Clouds Overcast 1300 ft
Windchill 40 °F
Dew Point 38 °F
Humidity 80%
Rainfall 0.00 in
Snow Depth Not available.
6:56 AM 5:10 PM
Waxing Crescent, 45% visible
METAR KSFF 141953Z VRB03KT 10SM OVC013 08/04 A3013 RMK AO2 SLP210 T00780039

10-Day Weather Forecast

Almanac

Astronomy

Feb. 14, 2016 Rise Set
Actual Time
Civil Twilight
Nautical Twilight
Astronomical Twilight
Moon
Length of Visible Light
Length of Day
Tomorrow will be .
, % of the Moon is Illuminated

Today's Extremes

State Highs State Lows

Community

WunderPhotos

Upload Photos

1,892,880 photos uploaded!

WunderBlog® & News

Nearby

Air Quality

  Air Quality AQ Index Pollutant
Not available.

Snow Depth

Station Depth Elevation

Earthquake Activity

City Distance Mag. Time & Date
Minimum magnitude displayed is 2.5.

Coastal Water Temperatures

Place Temperature

Stations

Nearby Weather Stations

Station Location Temp. Windchill Dew Point Humidity Wind Precip. Elev Updated Type
                   

Watches & Warnings

There are currently no watches in effect.